createdAt,value
2023-05-08T00:00:28.869Z,0.00
2023-05-08T00:00:59.743Z,0.00
2023-05-08T00:01:31.738Z,0.00
2023-05-08T00:02:03.735Z,0.00
2023-05-08T00:02:35.882Z,0.00
2023-05-08T00:03:07.804Z,0.00
2023-05-08T00:03:35.243Z,0.00
2023-05-08T00:03:56.018Z,0.00
2023-05-08T00:04:27.786Z,0.00
2023-05-08T00:04:59.794Z,0.00
2023-05-08T00:05:32.052Z,0.00
2023-05-08T00:06:03.766Z,0.00
2023-05-08T00:06:36.686Z,0.00
2023-05-08T00:07:07.750Z,0.00
2023-05-08T00:07:35.115Z,0.00
2023-05-08T00:07:55.740Z,0.00
2023-05-08T00:08:27.723Z,0.00
2023-05-08T00:08:59.733Z,0.00
2023-05-08T00:09:31.760Z,0.00
2023-05-08T00:10:04.056Z,0.00
2023-05-08T00:10:35.755Z,0.00
2023-05-08T00:11:07.826Z,0.00
2023-05-08T00:11:35.158Z,0.00
2023-05-08T00:11:55.787Z,0.00
2023-05-08T00:12:27.732Z,0.00
2023-05-08T00:12:59.824Z,0.00
2023-05-08T00:13:31.814Z,0.00
2023-05-08T00:14:03.743Z,0.00
2023-05-08T00:14:36.203Z,0.00
2023-05-08T00:15:08.417Z,0.00
2023-05-08T00:15:35.150Z,0.00
2023-05-08T00:15:55.995Z,0.00
2023-05-08T00:16:27.833Z,0.00
2023-05-08T00:16:59.841Z,0.00
2023-05-08T00:17:31.902Z,0.00
2023-05-08T00:18:03.774Z,0.00
2023-05-08T00:18:36.915Z,0.00
2023-05-08T00:19:07.699Z,0.00
2023-05-08T00:19:35.130Z,0.00
2023-05-08T00:19:55.780Z,0.00
2023-05-08T00:20:28.031Z,0.00
2023-05-08T00:20:59.889Z,0.00
2023-05-08T00:21:31.789Z,0.00
2023-05-08T00:22:03.712Z,0.00
2023-05-08T00:22:35.784Z,0.00
2023-05-08T00:23:07.770Z,0.00
2023-05-08T00:23:35.193Z,0.00
2023-05-08T00:23:55.788Z,0.00
2023-05-08T00:24:27.691Z,0.00
2023-05-08T00:25:02.747Z,0.00
2023-05-08T00:25:31.857Z,0.00
2023-05-08T00:26:03.713Z,0.00
2023-05-08T00:26:35.737Z,0.00
2023-05-08T00:27:07.694Z,0.00
2023-05-08T00:27:35.189Z,0.00
2023-05-08T00:27:55.798Z,0.00
2023-05-08T00:28:27.716Z,0.00
2023-05-08T00:28:59.798Z,0.00
2023-05-08T00:29:31.763Z,0.00
2023-05-08T00:30:04.490Z,0.00
2023-05-08T00:30:36.309Z,0.00
2023-05-08T00:31:07.717Z,0.00
2023-05-08T00:31:35.186Z,0.00
2023-05-08T00:31:55.797Z,0.00
2023-05-08T00:32:27.846Z,0.00
2023-05-08T00:32:59.804Z,0.00
2023-05-08T00:33:31.801Z,0.00
2023-05-08T00:34:03.709Z,0.00
2023-05-08T00:34:36.956Z,0.00
2023-05-08T00:35:08.039Z,0.00
2023-05-08T00:35:35.097Z,0.00
2023-05-08T00:35:56.107Z,0.00
2023-05-08T00:36:27.756Z,0.00
2023-05-08T00:36:59.705Z,0.00
2023-05-08T00:37:31.856Z,0.00
2023-05-08T00:38:03.744Z,0.00
2023-05-08T00:38:35.760Z,0.00
2023-05-08T00:39:07.679Z,0.00
2023-05-08T00:39:35.344Z,0.00
2023-05-08T00:39:55.780Z,0.00
2023-05-08T00:40:28.072Z,0.00
2023-05-08T00:41:01.530Z,0.00
2023-05-08T00:41:34.221Z,0.00
2023-05-08T00:42:03.880Z,0.00
2023-05-08T00:42:36.406Z,0.00
2023-05-08T00:43:07.846Z,0.00
2023-05-08T00:43:35.224Z,0.00
2023-05-08T00:43:56.192Z,0.00
2023-05-08T00:44:27.767Z,0.00
2023-05-08T00:45:01.935Z,0.00
2023-05-08T00:45:32.293Z,0.00
2023-05-08T00:46:04.677Z,0.00
2023-05-08T00:46:36.354Z,0.00
2023-05-08T00:47:07.922Z,0.00
2023-05-08T00:47:35.352Z,0.00
2023-05-08T00:47:56.108Z,0.00
2023-05-08T00:48:27.887Z,0.00
2023-05-08T00:49:00.067Z,0.00
2023-05-08T00:49:31.845Z,0.00
2023-05-08T00:50:05.936Z,0.00
2023-05-08T00:50:36.603Z,0.00
2023-05-08T00:51:07.943Z,0.00
2023-05-08T00:51:35.408Z,0.00
2023-05-08T00:51:56.108Z,0.00
2023-05-08T00:52:27.718Z,0.00
2023-05-08T00:52:59.790Z,0.00
2023-05-08T00:53:31.879Z,0.00
2023-05-08T00:54:03.736Z,0.00
2023-05-08T00:54:35.851Z,0.00
2023-05-08T00:55:08.119Z,0.00
2023-05-08T00:55:35.113Z,0.00
2023-05-08T00:55:56.035Z,0.00
2023-05-08T00:56:27.731Z,0.00
2023-05-08T00:57:00.476Z,0.00
2023-05-08T00:57:31.933Z,0.00
2023-05-08T00:58:03.730Z,0.00
2023-05-08T00:58:35.810Z,0.00
2023-05-08T00:59:07.753Z,0.00
2023-05-08T00:59:35.586Z,0.00
2023-05-08T00:59:55.843Z,0.00
2023-05-08T01:00:28.460Z,0.00
2023-05-08T01:00:59.920Z,0.00
2023-05-08T01:01:31.969Z,0.00
2023-05-08T01:02:03.763Z,0.00
2023-05-08T01:02:36.344Z,0.00
2023-05-08T01:03:07.885Z,0.00
2023-05-08T01:03:35.252Z,0.00
2023-05-08T01:03:55.953Z,0.00
2023-05-08T01:04:27.706Z,0.00
2023-05-08T01:04:59.763Z,0.00
2023-05-08T01:05:32.312Z,0.00
2023-05-08T01:06:03.779Z,0.00
2023-05-08T01:06:36.580Z,0.00
2023-05-08T01:07:07.692Z,0.00
2023-05-08T01:07:35.607Z,0.00
2023-05-08T01:07:55.828Z,0.00
2023-05-08T01:08:27.804Z,0.00
2023-05-08T01:08:59.774Z,0.00
2023-05-08T01:09:31.895Z,0.00
2023-05-08T01:10:04.252Z,0.00
2023-05-08T01:10:35.823Z,0.00
2023-05-08T01:11:07.739Z,0.00
2023-05-08T01:11:35.147Z,0.00
2023-05-08T01:11:55.844Z,0.00
2023-05-08T01:12:27.719Z,0.00
2023-05-08T01:13:00.503Z,0.00
2023-05-08T01:13:31.950Z,0.00
2023-05-08T01:14:03.686Z,0.00
2023-05-08T01:14:35.762Z,0.00
2023-05-08T01:15:08.244Z,0.00
2023-05-08T01:15:37.279Z,0.00
2023-05-08T01:15:56.081Z,0.00
2023-05-08T01:16:27.831Z,0.00
2023-05-08T01:16:59.773Z,0.00
2023-05-08T01:17:32.143Z,0.00
2023-05-08T01:18:03.863Z,0.00
2023-05-08T01:18:35.836Z,0.00
2023-05-08T01:19:07.732Z,0.00
2023-05-08T01:19:35.157Z,0.00
2023-05-08T01:19:55.777Z,0.00
2023-05-08T01:20:28.045Z,0.00
2023-05-08T01:20:59.775Z,0.00
2023-05-08T01:21:31.975Z,0.00
2023-05-08T01:22:03.721Z,0.00
2023-05-08T01:22:36.680Z,0.00
2023-05-08T01:23:07.727Z,0.00
2023-05-08T01:23:35.107Z,0.00
2023-05-08T01:23:55.788Z,0.00
2023-05-08T01:24:27.743Z,0.00
2023-05-08T01:24:59.967Z,0.00
2023-05-08T01:25:32.297Z,0.00
2023-05-08T01:26:03.709Z,0.00
2023-05-08T01:26:36.354Z,0.00
2023-05-08T01:27:07.735Z,0.00
2023-05-08T01:27:35.460Z,0.00
2023-05-08T01:27:55.736Z,0.00
2023-05-08T01:28:27.712Z,0.00
2023-05-08T01:29:00.496Z,0.00
2023-05-08T01:29:32.045Z,0.00
2023-05-08T01:30:04.394Z,0.00
2023-05-08T01:30:35.940Z,0.00
2023-05-08T01:31:07.699Z,0.00
2023-05-08T01:31:35.115Z,0.00
2023-05-08T01:31:55.811Z,0.00
2023-05-08T01:32:27.722Z,0.00
2023-05-08T01:32:59.875Z,0.00
2023-05-08T01:33:32.077Z,0.00
2023-05-08T01:34:03.754Z,0.00
2023-05-08T01:34:35.749Z,0.00
2023-05-08T01:35:08.120Z,0.00
2023-05-08T01:35:35.081Z,0.00
2023-05-08T01:35:55.926Z,0.00
2023-05-08T01:36:27.792Z,0.00
2023-05-08T01:36:59.995Z,0.00
2023-05-08T01:37:31.909Z,0.00
2023-05-08T01:38:03.678Z,0.00
2023-05-08T01:38:36.447Z,0.00
2023-05-08T01:39:07.689Z,0.00
2023-05-08T01:39:35.073Z,0.00
2023-05-08T01:39:55.757Z,0.00
2023-05-08T01:40:28.027Z,0.00
2023-05-08T01:40:59.928Z,0.00
2023-05-08T01:41:31.931Z,0.00
2023-05-08T01:42:03.717Z,0.00
2023-05-08T01:42:35.774Z,0.00
2023-05-08T01:43:07.675Z,0.00
2023-05-08T01:43:35.384Z,0.00
2023-05-08T01:43:55.697Z,0.00
2023-05-08T01:44:27.704Z,0.00
2023-05-08T01:45:03.224Z,0.00
2023-05-08T01:45:32.016Z,0.00
2023-05-08T01:46:03.841Z,0.00
2023-05-08T01:46:35.814Z,0.00
2023-05-08T01:47:07.848Z,0.00
2023-05-08T01:47:35.165Z,0.00
2023-05-08T01:47:55.839Z,0.00
2023-05-08T01:48:27.730Z,0.00
2023-05-08T01:48:59.795Z,0.00
2023-05-08T01:49:32.004Z,0.00
2023-05-08T01:50:04.097Z,0.00
2023-05-08T01:50:35.890Z,0.00
2023-05-08T01:51:07.770Z,0.00
2023-05-08T01:51:35.131Z,0.00
2023-05-08T01:51:55.735Z,0.00
2023-05-08T01:52:27.749Z,0.00
2023-05-08T01:52:59.766Z,0.00
2023-05-08T01:53:32.027Z,0.00
2023-05-08T01:54:03.741Z,0.00
2023-05-08T01:54:36.586Z,0.00
2023-05-08T01:55:08.128Z,0.00
2023-05-08T01:55:35.074Z,0.00
2023-05-08T01:55:55.932Z,0.00
2023-05-08T01:56:27.719Z,0.00
2023-05-08T01:56:59.678Z,0.00
2023-05-08T01:57:31.982Z,0.00
2023-05-08T01:58:03.676Z,0.00
2023-05-08T01:58:35.702Z,0.00
2023-05-08T01:59:07.657Z,0.00
2023-05-08T01:59:35.514Z,0.00
2023-05-08T01:59:55.690Z,0.00
2023-05-08T02:00:28.216Z,0.00
2023-05-08T02:01:00.645Z,0.00
2023-05-08T02:01:32.024Z,0.00
2023-05-08T02:02:03.712Z,0.00
2023-05-08T02:02:36.108Z,0.00
2023-05-08T02:03:07.734Z,0.00
2023-05-08T02:03:35.681Z,0.00
2023-05-08T02:03:55.775Z,0.00
2023-05-08T02:04:27.678Z,0.00
2023-05-08T02:04:59.707Z,0.00
2023-05-08T02:05:32.268Z,0.00
2023-05-08T02:06:03.722Z,0.00
2023-05-08T02:06:35.947Z,0.00
2023-05-08T02:07:07.684Z,0.00
2023-05-08T02:07:35.517Z,0.00
2023-05-08T02:07:55.890Z,0.00
2023-05-08T02:08:27.696Z,0.00
2023-05-08T02:09:15.739Z,0.00
2023-05-08T02:09:37.118Z,0.00
2023-05-08T02:10:03.980Z,0.00
2023-05-08T02:10:36.507Z,0.00
2023-05-08T02:11:07.665Z,0.00
2023-05-08T02:11:35.487Z,0.00
2023-05-08T02:11:55.696Z,0.00
2023-05-08T02:12:28.088Z,0.00
2023-05-08T02:13:00.008Z,0.00
2023-05-08T02:13:31.981Z,0.00
2023-05-08T02:14:03.700Z,0.00
2023-05-08T02:14:35.731Z,0.00
2023-05-08T02:15:08.565Z,0.00
2023-05-08T02:15:35.080Z,0.00
2023-05-08T02:15:55.961Z,0.00
2023-05-08T02:16:27.869Z,0.00
2023-05-08T02:17:00.562Z,0.00
2023-05-08T02:17:32.117Z,0.00
2023-05-08T02:18:03.677Z,0.00
2023-05-08T02:18:36.277Z,0.00
2023-05-08T02:19:07.851Z,0.00
2023-05-08T02:19:35.064Z,0.00
2023-05-08T02:19:56.660Z,0.00
2023-05-08T02:20:27.993Z,0.00
2023-05-08T02:20:59.781Z,0.00
2023-05-08T02:21:32.082Z,0.00
2023-05-08T02:22:03.708Z,0.00
2023-05-08T02:22:35.717Z,0.00
2023-05-08T02:23:07.870Z,0.00
2023-05-08T02:23:35.320Z,0.00
2023-05-08T02:23:55.862Z,0.00
2023-05-08T02:24:27.647Z,0.00
2023-05-08T02:24:59.674Z,0.00
2023-05-08T02:25:32.309Z,0.00
2023-05-08T02:26:03.644Z,0.00
2023-05-08T02:26:36.588Z,0.00
2023-05-08T02:27:07.866Z,0.00
2023-05-08T02:27:35.603Z,0.00
2023-05-08T02:27:55.869Z,0.00
2023-05-08T02:28:27.646Z,0.00
2023-05-08T02:29:00.200Z,0.00
2023-05-08T02:29:32.091Z,0.00
2023-05-08T02:30:04.369Z,0.00
2023-05-08T02:30:35.881Z,0.00
2023-05-08T02:31:07.682Z,0.00
2023-05-08T02:31:35.282Z,0.00
2023-05-08T02:31:56.023Z,0.00
2023-05-08T02:32:27.689Z,0.00
2023-05-08T02:33:00.876Z,0.00
2023-05-08T02:33:32.780Z,0.00
2023-05-08T02:34:03.642Z,0.00
2023-05-08T02:34:35.650Z,0.00
2023-05-08T02:35:08.266Z,0.00
2023-05-08T02:35:35.114Z,0.00
2023-05-08T02:35:55.949Z,0.00
2023-05-08T02:36:27.630Z,0.00
2023-05-08T02:36:59.702Z,0.00
2023-05-08T02:37:32.068Z,0.00
2023-05-08T02:38:03.715Z,0.00
2023-05-08T02:38:35.668Z,0.00
2023-05-08T02:39:07.895Z,0.00
2023-05-08T02:39:35.372Z,0.00
2023-05-08T02:39:55.664Z,0.00
2023-05-08T02:40:27.924Z,0.00
2023-05-08T02:40:59.689Z,0.00
2023-05-08T02:41:32.078Z,0.00
2023-05-08T02:42:03.643Z,0.00
2023-05-08T02:42:36.497Z,0.00
2023-05-08T02:43:07.855Z,0.00
2023-05-08T02:43:35.598Z,0.00
2023-05-08T02:43:55.690Z,0.00
2023-05-08T02:44:27.811Z,0.00
2023-05-08T02:44:59.637Z,0.00
2023-05-08T02:45:32.650Z,0.00
2023-05-08T02:46:03.836Z,0.00
2023-05-08T02:46:36.199Z,0.00
2023-05-08T02:47:07.676Z,0.00
2023-05-08T02:47:35.207Z,0.00
2023-05-08T02:47:55.689Z,0.00
2023-05-08T02:48:27.943Z,0.00
2023-05-08T02:49:00.362Z,0.00
2023-05-08T02:49:32.188Z,0.00
2023-05-08T02:50:04.104Z,0.00
2023-05-08T02:50:35.698Z,0.00
2023-05-08T02:51:07.861Z,0.00
2023-05-08T02:51:35.248Z,0.00
2023-05-08T02:51:55.689Z,0.00
2023-05-08T02:52:27.883Z,0.00
2023-05-08T02:52:59.769Z,0.00
2023-05-08T02:53:32.125Z,0.00
2023-05-08T02:54:03.647Z,0.00
2023-05-08T02:54:35.701Z,0.00
2023-05-08T02:55:08.276Z,0.00
2023-05-08T02:55:35.829Z,0.00
2023-05-08T02:55:56.117Z,0.00
2023-05-08T02:56:27.623Z,0.00
2023-05-08T02:56:59.633Z,0.00
2023-05-08T02:57:32.105Z,0.00
2023-05-08T02:58:03.638Z,0.00
2023-05-08T02:58:37.211Z,0.00
2023-05-08T02:59:07.623Z,0.00
2023-05-08T02:59:35.344Z,0.00
2023-05-08T02:59:55.874Z,0.00
2023-05-08T03:00:28.187Z,0.00
2023-05-08T03:00:59.913Z,0.00
2023-05-08T03:01:32.229Z,0.00
2023-05-08T03:02:03.664Z,0.00
2023-05-08T03:02:35.976Z,0.00
2023-05-08T03:03:07.758Z,0.00
2023-05-08T03:03:35.645Z,0.00
2023-05-08T03:03:56.027Z,0.00
2023-05-08T03:04:27.630Z,0.00
2023-05-08T03:05:01.416Z,0.00
2023-05-08T03:05:32.271Z,0.00
2023-05-08T03:06:03.639Z,0.00
2023-05-08T03:06:35.695Z,0.00
2023-05-08T03:07:07.639Z,0.00
2023-05-08T03:07:35.089Z,0.00
2023-05-08T03:07:55.917Z,0.00
2023-05-08T03:08:27.633Z,0.00
2023-05-08T03:09:15.612Z,0.00
2023-05-08T03:09:37.114Z,0.00
2023-05-08T03:10:04.937Z,0.00
2023-05-08T03:10:35.995Z,0.00
2023-05-08T03:11:07.883Z,0.00
2023-05-08T03:11:35.689Z,0.00
2023-05-08T03:11:55.679Z,0.00
2023-05-08T03:12:27.806Z,0.00
2023-05-08T03:12:59.876Z,0.00
2023-05-08T03:13:32.151Z,0.00
2023-05-08T03:14:03.619Z,0.00
2023-05-08T03:14:36.468Z,0.00
2023-05-08T03:15:08.513Z,0.00
2023-05-08T03:15:35.090Z,0.00
2023-05-08T03:15:55.938Z,0.00
2023-05-08T03:16:27.702Z,0.00
2023-05-08T03:16:59.677Z,0.00
2023-05-08T03:17:32.191Z,0.00
2023-05-08T03:18:03.869Z,0.00
2023-05-08T03:18:35.667Z,0.00
2023-05-08T03:19:07.623Z,0.00
2023-05-08T03:19:35.037Z,0.00
2023-05-08T03:19:55.625Z,0.00
2023-05-08T03:20:28.071Z,0.00
2023-05-08T03:21:00.941Z,0.00
2023-05-08T03:21:32.211Z,0.00
2023-05-08T03:22:03.647Z,0.00
2023-05-08T03:22:35.874Z,0.00
2023-05-08T03:23:07.611Z,0.00
2023-05-08T03:23:35.157Z,0.00
2023-05-08T03:23:55.647Z,0.00
2023-05-08T03:24:27.651Z,0.00
2023-05-08T03:24:59.688Z,0.00
2023-05-08T03:25:32.345Z,0.00
2023-05-08T03:26:03.848Z,0.00
2023-05-08T03:26:35.896Z,0.00
2023-05-08T03:27:07.861Z,0.00
2023-05-08T03:27:35.046Z,0.00
2023-05-08T03:27:55.596Z,0.00
2023-05-08T03:28:27.605Z,0.00
2023-05-08T03:28:59.644Z,0.00
2023-05-08T03:29:32.219Z,0.00
2023-05-08T03:30:04.493Z,0.00
2023-05-08T03:30:36.474Z,0.00
2023-05-08T03:31:07.767Z,0.00
2023-05-08T03:31:35.058Z,0.00
2023-05-08T03:31:55.609Z,0.00
2023-05-08T03:32:27.683Z,0.00
2023-05-08T03:32:59.765Z,0.00
2023-05-08T03:33:32.268Z,0.00
2023-05-08T03:34:03.604Z,0.00
2023-05-08T03:34:35.783Z,0.00
2023-05-08T03:35:08.086Z,0.00
2023-05-08T03:35:35.292Z,0.00
2023-05-08T03:35:55.900Z,0.00
2023-05-08T03:36:27.803Z,0.00
2023-05-08T03:37:00.593Z,0.00
2023-05-08T03:37:32.299Z,0.00
2023-05-08T03:38:03.745Z,0.00
2023-05-08T03:38:35.626Z,0.00
2023-05-08T03:39:07.819Z,0.00
2023-05-08T03:39:35.241Z,0.00
2023-05-08T03:39:55.727Z,0.00
2023-05-08T03:40:28.108Z,0.00
2023-05-08T03:40:59.762Z,0.00
2023-05-08T03:41:32.180Z,0.00
2023-05-08T03:42:03.672Z,0.00
2023-05-08T03:42:35.633Z,0.00
2023-05-08T03:43:07.616Z,0.00
2023-05-08T03:43:35.072Z,0.00
2023-05-08T03:43:55.605Z,0.00
2023-05-08T03:44:27.597Z,0.00
2023-05-08T03:44:59.628Z,0.00
2023-05-08T03:45:32.581Z,0.00
2023-05-08T03:46:03.723Z,0.00
2023-05-08T03:46:37.076Z,0.00
2023-05-08T03:47:07.782Z,0.00
2023-05-08T03:47:35.065Z,0.00
2023-05-08T03:47:55.712Z,0.00
2023-05-08T03:48:27.617Z,0.00
2023-05-08T03:48:59.642Z,0.00
2023-05-08T03:49:32.107Z,0.00
2023-05-08T03:50:03.943Z,0.00
2023-05-08T03:50:35.671Z,0.00
2023-05-08T03:51:07.638Z,0.00
2023-05-08T03:51:35.049Z,0.00
2023-05-08T03:51:55.599Z,0.00
2023-05-08T03:52:27.571Z,0.00
2023-05-08T03:53:00.435Z,0.00
2023-05-08T03:53:32.118Z,0.00
2023-05-08T03:54:03.602Z,0.00
2023-05-08T03:54:35.576Z,0.00
2023-05-08T03:55:08.072Z,0.00
2023-05-08T03:55:35.468Z,0.00
2023-05-08T03:55:55.878Z,0.00
2023-05-08T03:56:27.599Z,0.00
2023-05-08T03:56:59.622Z,0.00
2023-05-08T03:57:32.088Z,0.00
2023-05-08T03:58:03.655Z,0.00
2023-05-08T03:58:35.953Z,0.00
2023-05-08T03:59:07.699Z,0.00
2023-05-08T03:59:35.143Z,0.00
2023-05-08T03:59:55.572Z,0.36
2023-05-08T04:00:28.174Z,0.36
2023-05-08T04:00:59.628Z,0.36
2023-05-08T04:01:32.237Z,0.85
2023-05-08T04:02:03.529Z,0.85
2023-05-08T04:02:36.450Z,1.22
2023-05-08T04:03:07.267Z,0.85
2023-05-08T04:03:34.730Z,1.22
2023-05-08T04:03:55.322Z,0.85
2023-05-08T04:04:27.252Z,1.71
2023-05-08T04:04:59.183Z,1.71
2023-05-08T04:05:31.690Z,1.22
2023-05-08T04:06:03.253Z,0.36
2023-05-08T04:06:48.614Z,1.71
2023-05-08T04:07:07.876Z,1.71
2023-05-08T04:07:37.288Z,2.57
2023-05-08T04:07:55.727Z,2.08
2023-05-08T04:08:28.169Z,1.71
2023-05-08T04:08:59.824Z,1.22
2023-05-08T04:09:31.752Z,2.08
2023-05-08T04:10:04.093Z,2.08
2023-05-08T04:10:35.723Z,2.57
2023-05-08T04:11:07.785Z,2.57
2023-05-08T04:11:35.164Z,2.08
2023-05-08T04:11:55.808Z,2.57
2023-05-08T04:12:28.522Z,2.08
2023-05-08T04:13:00.470Z,2.94
2023-05-08T04:13:31.775Z,4.28
2023-05-08T04:14:03.753Z,3.43
2023-05-08T04:14:35.722Z,3.43
2023-05-08T04:15:08.441Z,2.57
2023-05-08T04:15:35.912Z,2.94
2023-05-08T04:15:55.959Z,2.94
2023-05-08T04:16:28.231Z,3.43
2023-05-08T04:16:59.763Z,3.43
2023-05-08T04:17:31.753Z,3.79
2023-05-08T04:18:03.732Z,4.28
2023-05-08T04:18:37.612Z,3.79
2023-05-08T04:19:07.715Z,3.79
2023-05-08T04:19:35.807Z,3.79
2023-05-08T04:19:55.756Z,4.28
2023-05-08T04:20:28.545Z,3.79
2023-05-08T04:20:59.758Z,4.28
2023-05-08T04:21:31.812Z,4.77
2023-05-08T04:22:03.835Z,3.79
2023-05-08T04:22:35.746Z,4.28
2023-05-08T04:23:07.715Z,4.77
2023-05-08T04:23:35.162Z,4.77
2023-05-08T04:23:55.734Z,5.63
2023-05-08T04:24:28.199Z,5.14
2023-05-08T04:25:00.907Z,5.63
2023-05-08T04:25:31.722Z,5.14
2023-05-08T04:26:05.554Z,5.99
2023-05-08T04:26:35.669Z,5.99
2023-05-08T04:27:07.692Z,5.99
2023-05-08T04:27:35.189Z,6.48
2023-05-08T04:27:55.722Z,6.48
2023-05-08T04:28:28.185Z,6.85
2023-05-08T04:28:59.729Z,6.48
2023-05-08T04:29:31.728Z,6.85
2023-05-08T04:30:04.463Z,7.34
2023-05-08T04:30:35.760Z,7.70
2023-05-08T04:31:08.036Z,7.34
2023-05-08T04:31:35.229Z,7.70
2023-05-08T04:31:55.697Z,7.70
2023-05-08T04:32:28.306Z,7.70
2023-05-08T04:32:59.804Z,7.70
2023-05-08T04:33:31.743Z,7.34
2023-05-08T04:34:04.001Z,7.70
2023-05-08T04:34:36.381Z,8.19
2023-05-08T04:35:08.023Z,7.34
2023-05-08T04:35:35.534Z,7.70
2023-05-08T04:35:56.027Z,8.19
2023-05-08T04:36:28.249Z,8.19
2023-05-08T04:36:59.754Z,7.70
2023-05-08T04:37:31.747Z,7.34
2023-05-08T04:38:03.771Z,8.19
2023-05-08T04:38:35.691Z,8.56
2023-05-08T04:39:07.758Z,8.56
2023-05-08T04:39:35.784Z,8.19
2023-05-08T04:39:55.688Z,8.56
2023-05-08T04:40:28.573Z,9.54
2023-05-08T04:41:00.599Z,9.05
2023-05-08T04:41:31.788Z,9.54
2023-05-08T04:42:03.794Z,9.91
2023-05-08T04:42:35.800Z,10.77
2023-05-08T04:43:07.710Z,11.25
2023-05-08T04:43:35.145Z,11.62
2023-05-08T04:43:55.713Z,11.25
2023-05-08T04:44:28.192Z,11.62
2023-05-08T04:44:59.739Z,12.48
2023-05-08T04:45:32.307Z,12.97
2023-05-08T04:46:03.998Z,13.82
2023-05-08T04:46:35.887Z,13.33
2023-05-08T04:47:07.718Z,13.82
2023-05-08T04:47:36.249Z,13.82
2023-05-08T04:47:55.712Z,14.31
2023-05-08T04:48:28.310Z,13.82
2023-05-08T04:48:59.670Z,13.82
2023-05-08T04:49:31.769Z,13.82
2023-05-08T04:50:04.118Z,14.31
2023-05-08T04:50:36.396Z,13.82
2023-05-08T04:51:07.712Z,14.68
2023-05-08T04:51:35.168Z,14.68
2023-05-08T04:51:55.702Z,13.82
2023-05-08T04:52:28.222Z,14.68
2023-05-08T04:52:59.686Z,14.31
2023-05-08T04:53:31.703Z,14.68
2023-05-08T04:54:03.798Z,14.68
2023-05-08T04:54:35.991Z,14.68
2023-05-08T04:55:08.111Z,14.68
2023-05-08T04:55:35.671Z,15.17
2023-05-08T04:55:56.276Z,15.53
2023-05-08T04:56:28.164Z,16.39
2023-05-08T04:57:00.548Z,16.02
2023-05-08T04:57:31.798Z,16.02
2023-05-08T04:58:03.712Z,16.39
2023-05-08T04:58:35.701Z,16.39
2023-05-08T04:59:07.675Z,16.39
2023-05-08T04:59:35.150Z,16.88
2023-05-08T04:59:55.714Z,17.25
2023-05-08T05:00:28.778Z,17.25
2023-05-08T05:00:59.687Z,17.25
2023-05-08T05:01:31.801Z,17.25
2023-05-08T05:02:03.784Z,17.25
2023-05-08T05:02:35.752Z,16.88
2023-05-08T05:03:07.780Z,17.25
2023-05-08T05:03:35.244Z,16.39
2023-05-08T05:03:55.760Z,15.53
2023-05-08T05:04:28.121Z,16.02
2023-05-08T05:04:59.954Z,15.53
2023-05-08T05:05:32.034Z,15.17
2023-05-08T05:06:04.036Z,15.17
2023-05-08T05:06:36.548Z,15.17
2023-05-08T05:07:07.666Z,15.17
2023-05-08T05:07:35.170Z,15.53
2023-05-08T05:07:55.697Z,15.53
2023-05-08T05:08:28.164Z,15.17
2023-05-08T05:09:01.128Z,16.39
2023-05-08T05:09:31.760Z,16.88
2023-05-08T05:10:04.067Z,17.25
2023-05-08T05:10:35.729Z,16.88
2023-05-08T05:11:07.724Z,17.73
2023-05-08T05:11:35.154Z,17.25
2023-05-08T05:11:57.961Z,17.73
2023-05-08T05:12:28.213Z,17.25
2023-05-08T05:12:59.717Z,18.60
2023-05-08T05:13:31.766Z,18.60
2023-05-08T05:14:03.762Z,18.11
2023-05-08T05:14:35.909Z,17.25
2023-05-08T05:15:08.310Z,18.60
2023-05-08T05:15:35.387Z,16.88
2023-05-08T05:15:56.016Z,17.25
2023-05-08T05:16:28.201Z,17.73
2023-05-08T05:16:59.825Z,17.73
2023-05-08T05:17:31.773Z,17.25
2023-05-08T05:18:03.832Z,17.73
2023-05-08T05:18:36.383Z,17.73
2023-05-08T05:19:07.714Z,17.73
2023-05-08T05:19:35.130Z,17.25
2023-05-08T05:19:55.682Z,17.25
2023-05-08T05:20:28.429Z,17.73
2023-05-08T05:21:00.622Z,17.73
2023-05-08T05:21:31.680Z,18.60
2023-05-08T05:22:03.765Z,18.11
2023-05-08T05:22:35.704Z,18.60
2023-05-08T05:23:07.684Z,19.45
2023-05-08T05:23:35.178Z,20.31
2023-05-08T05:23:55.714Z,20.31
2023-05-08T05:24:28.173Z,21.65
2023-05-08T05:25:00.884Z,22.02
2023-05-08T05:25:31.741Z,22.51
2023-05-08T05:26:03.749Z,23.85
2023-05-08T05:26:36.836Z,23.36
2023-05-08T05:27:07.750Z,24.22
2023-05-08T05:27:35.146Z,24.22
2023-05-08T05:27:55.658Z,24.22
2023-05-08T05:28:28.208Z,25.07
2023-05-08T05:28:59.672Z,25.56
2023-05-08T05:29:31.741Z,25.07
2023-05-08T05:30:04.401Z,25.94
2023-05-08T05:30:35.691Z,24.71
2023-05-08T05:31:07.857Z,25.56
2023-05-08T05:31:35.491Z,25.07
2023-05-08T05:31:55.739Z,24.22
2023-05-08T05:32:28.272Z,24.22
2023-05-08T05:32:59.716Z,22.87
2023-05-08T05:33:31.808Z,22.87
2023-05-08T05:34:03.751Z,22.51
2023-05-08T05:34:36.680Z,22.02
2023-05-08T05:35:07.996Z,20.80
2023-05-08T05:35:35.787Z,20.31
2023-05-08T05:35:55.869Z,20.31
2023-05-08T05:36:28.123Z,19.94
2023-05-08T05:36:59.658Z,19.94
2023-05-08T05:37:31.722Z,19.45
2023-05-08T05:38:03.770Z,19.08
2023-05-08T05:38:35.687Z,19.45
2023-05-08T05:39:07.677Z,19.08
2023-05-08T05:39:35.885Z,19.45
2023-05-08T05:39:55.658Z,19.94
2023-05-08T05:40:28.843Z,19.45
2023-05-08T05:41:00.576Z,19.94
2023-05-08T05:41:31.749Z,19.94
2023-05-08T05:42:03.843Z,20.80
2023-05-08T05:42:35.709Z,20.80
2023-05-08T05:43:07.654Z,21.65
2023-05-08T05:43:35.287Z,21.16
2023-05-08T05:43:55.643Z,21.65
2023-05-08T05:44:28.155Z,22.02
2023-05-08T05:44:59.713Z,22.87
2023-05-08T05:45:33.660Z,23.85
2023-05-08T05:46:03.877Z,24.22
2023-05-08T05:46:36.030Z,25.56
2023-05-08T05:47:07.729Z,25.56
2023-05-08T05:47:35.161Z,26.42
2023-05-08T05:47:55.757Z,27.28
2023-05-08T05:48:28.116Z,28.63
2023-05-08T05:48:59.695Z,28.63
2023-05-08T05:49:31.727Z,30.34
2023-05-08T05:50:04.037Z,30.34
2023-05-08T05:50:36.984Z,30.70
2023-05-08T05:51:07.717Z,32.42
2023-05-08T05:51:35.494Z,32.90
2023-05-08T05:51:55.848Z,33.76
2023-05-08T05:52:28.131Z,33.39
2023-05-08T05:52:59.719Z,34.25
2023-05-08T05:53:31.692Z,34.25
2023-05-08T05:54:03.734Z,34.62
2023-05-08T05:54:35.836Z,35.97
2023-05-08T05:55:07.954Z,35.48
2023-05-08T05:55:35.167Z,35.97
2023-05-08T05:55:55.884Z,35.48
2023-05-08T05:56:28.128Z,35.48
2023-05-08T05:57:00.816Z,35.97
2023-05-08T05:57:31.757Z,35.97
2023-05-08T05:58:03.747Z,36.33
2023-05-08T05:58:35.787Z,36.33
2023-05-08T05:59:07.680Z,35.11
2023-05-08T05:59:35.522Z,35.11
2023-05-08T05:59:55.655Z,34.62
2023-05-08T06:00:29.057Z,34.62
2023-05-08T06:00:59.662Z,34.25
2023-05-08T06:01:31.678Z,34.62
2023-05-08T06:02:03.759Z,33.39
2023-05-08T06:02:35.752Z,32.90
2023-05-08T06:03:07.756Z,32.42
2023-05-08T06:03:35.285Z,32.05
2023-05-08T06:03:55.832Z,32.05
2023-05-08T06:04:28.232Z,32.05
2023-05-08T06:04:59.680Z,32.05
2023-05-08T06:05:31.954Z,31.56
2023-05-08T06:06:03.708Z,30.70
2023-05-08T06:06:36.459Z,30.34
2023-05-08T06:07:07.766Z,30.34
2023-05-08T06:07:35.160Z,30.70
2023-05-08T06:07:55.679Z,30.34
2023-05-08T06:08:28.134Z,30.34
2023-05-08T06:09:00.336Z,30.34
2023-05-08T06:09:31.697Z,29.85
2023-05-08T06:10:04.133Z,29.48
2023-05-08T06:10:35.644Z,29.48
2023-05-08T06:11:07.644Z,28.99
2023-05-08T06:11:35.168Z,27.65
2023-05-08T06:11:55.638Z,27.65
2023-05-08T06:12:28.145Z,27.65
2023-05-08T06:12:59.698Z,26.42
2023-05-08T06:13:31.900Z,27.65
2023-05-08T06:14:03.701Z,26.79
2023-05-08T06:14:35.995Z,26.42
2023-05-08T06:15:09.159Z,26.42
2023-05-08T06:15:35.131Z,26.42
2023-05-08T06:15:55.938Z,25.94
2023-05-08T06:16:28.140Z,26.79
2023-05-08T06:16:59.611Z,26.42
2023-05-08T06:17:31.808Z,26.79
2023-05-08T06:18:03.731Z,27.28
2023-05-08T06:18:36.549Z,27.28
2023-05-08T06:19:07.673Z,28.14
2023-05-08T06:19:35.170Z,27.65
2023-05-08T06:19:55.699Z,28.14
2023-05-08T06:20:28.492Z,28.99
2023-05-08T06:20:59.672Z,29.48
2023-05-08T06:21:31.743Z,29.48
2023-05-08T06:22:03.831Z,29.85
2023-05-08T06:22:35.677Z,31.19
2023-05-08T06:23:07.648Z,31.56
2023-05-08T06:23:35.654Z,32.05
2023-05-08T06:23:56.665Z,32.05
2023-05-08T06:24:28.103Z,32.90
2023-05-08T06:25:00.970Z,34.25
2023-05-08T06:25:32.009Z,35.11
2023-05-08T06:26:03.746Z,35.48
2023-05-08T06:26:35.607Z,35.48
2023-05-08T06:27:07.689Z,36.33
2023-05-08T06:27:35.145Z,35.97
2023-05-08T06:27:55.980Z,36.33
2023-05-08T06:28:28.248Z,36.33
2023-05-08T06:28:59.659Z,36.33
2023-05-08T06:29:31.700Z,36.33
2023-05-08T06:30:04.359Z,35.97
2023-05-08T06:30:35.880Z,35.48
2023-05-08T06:31:07.740Z,36.82
2023-05-08T06:31:35.221Z,37.68
2023-05-08T06:31:55.865Z,39.02
2023-05-08T06:32:28.186Z,40.24
2023-05-08T06:32:59.706Z,41.10
2023-05-08T06:33:31.670Z,41.96
2023-05-08T06:34:03.693Z,43.31
2023-05-08T06:34:36.269Z,43.80
2023-05-08T06:35:08.277Z,43.80
2023-05-08T06:35:35.437Z,44.65